sensor_id;sensor_type;location;lat;lon;timestamp;pressure;altitude;pressure_sealevel;temperature;humidity
60465;BME280;46314;52.392;9.758;2023-02-03T00:01:02;101284.41;;;8.61;100.00
60465;BME280;46314;52.392;9.758;2023-02-03T00:03:29;101286.63;;;8.59;100.00
60465;BME280;46314;52.392;9.758;2023-02-03T00:05:57;101279.13;;;8.54;100.00
60465;BME280;46314;52.392;9.758;2023-02-03T00:08:23;101265.50;;;8.37;100.00
60465;BME280;46314;52.392;9.758;2023-02-03T00:10:49;101268.91;;;8.44;100.00
60465;BME280;46314;52.392;9.758;2023-02-03T00:13:16;101278.75;;;8.30;100.00
60465;BME280;46314;52.392;9.758;2023-02-03T00:15:42;101266.53;;;8.10;100.00
60465;BME280;46314;52.392;9.758;2023-02-03T00:18:09;101262.56;;;8.54;100.00
60465;BME280;46314;52.392;9.758;2023-02-03T00:20:35;101261.75;;;8.74;100.00
60465;BME280;46314;52.392;9.758;2023-02-03T00:23:04;101256.50;;;8.67;100.00
60465;BME280;46314;52.392;9.758;2023-02-03T00:25:31;101242.38;;;8.53;100.00
60465;BME280;46314;52.392;9.758;2023-02-03T00:27:57;101237.69;;;8.59;100.00
60465;BME280;46314;52.392;9.758;2023-02-03T00:30:24;101246.16;;;8.32;100.00
60465;BME280;46314;52.392;9.758;2023-02-03T00:32:50;101240.97;;;8.51;100.00
60465;BME280;46314;52.392;9.758;2023-02-03T00:35:17;101237.84;;;8.27;100.00
60465;BME280;46314;52.392;9.758;2023-02-03T00:37:43;101245.28;;;8.26;100.00
60465;BME280;46314;52.392;9.758;2023-02-03T00:40:17;101243.22;;;8.59;100.00
60465;BME280;46314;52.392;9.758;2023-02-03T00:42:43;101252.50;;;8.32;100.00
60465;BME280;46314;52.392;9.758;2023-02-03T00:45:10;101259.13;;;8.31;100.00
60465;BME280;46314;52.392;9.758;2023-02-03T00:47:36;101248.19;;;8.57;100.00
60465;BME280;46314;52.392;9.758;2023-02-03T00:50:04;101248.44;;;8.45;100.00
60465;BME280;46314;52.392;9.758;2023-02-03T00:52:30;101238.47;;;8.49;100.00
60465;BME280;46314;52.392;9.758;2023-02-03T00:54:57;101237.41;;;8.56;100.00
60465;BME280;46314;52.392;9.758;2023-02-03T00:57:25;101226.84;;;8.42;100.00
60465;BME280;46314;52.392;9.758;2023-02-03T00:59:51;101249.28;;;8.56;100.00
60465;BME280;46314;52.392;9.758;2023-02-03T01:02:18;101228.56;;;8.53;100.00
60465;BME280;46314;52.392;9.758;2023-02-03T01:04:44;101231.25;;;8.38;100.00
60465;BME280;46314;52.392;9.758;2023-02-03T01:07:11;101225.78;;;8.48;100.00
60465;BME280;46314;52.392;9.758;2023-02-03T01:09:38;101211.81;;;8.07;100.00
60465;BME280;46314;52.392;9.758;2023-02-03T01:12:05;101221.84;;;8.39;100.00
60465;BME280;46314;52.392;9.758;2023-02-03T01:14:32;101226.72;;;8.01;100.00
60465;BME280;46314;52.392;9.758;2023-02-03T01:17:00;101238.41;;;8.24;100.00
60465;BME280;46314;52.392;9.758;2023-02-03T01:19:26;101241.19;;;8.34;100.00
60465;BME280;46314;52.392;9.758;2023-02-03T01:21:53;101237.88;;;8.37;100.00
60465;BME280;46314;52.392;9.758;2023-02-03T01:24:19;101235.16;;;8.52;100.00
60465;BME280;46314;52.392;9.758;2023-02-03T01:26:45;101245.16;;;8.59;100.00
60465;BME280;46314;52.392;9.758;2023-02-03T01:29:12;101237.69;;;8.64;100.00
60465;BME280;46314;52.392;9.758;2023-02-03T01:31:41;101243.75;;;8.56;100.00
60465;BME280;46314;52.392;9.758;2023-02-03T01:34:11;101235.72;;;8.44;100.00
60465;BME280;46314;52.392;9.758;2023-02-03T01:36:38;101233.47;;;8.41;100.00
60465;BME280;46314;52.392;9.758;2023-02-03T01:39:05;101236.59;;;8.86;100.00
60465;BME280;46314;52.392;9.758;2023-02-03T01:41:33;101233.22;;;8.53;100.00
60465;BME280;46314;52.392;9.758;2023-02-03T01:44:01;101227.94;;;8.36;100.00
60465;BME280;46314;52.392;9.758;2023-02-03T01:46:30;101240.16;;;8.50;100.00
60465;BME280;46314;52.392;9.758;2023-02-03T01:49:05;101243.44;;;8.42;100.00
60465;BME280;46314;52.392;9.758;2023-02-03T01:51:33;101224.97;;;8.74;100.00
60465;BME280;46314;52.392;9.758;2023-02-03T01:54:00;101216.38;;;8.55;100.00
60465;BME280;46314;52.392;9.758;2023-02-03T01:56:31;101213.84;;;8.38;100.00
60465;BME280;46314;52.392;9.758;2023-02-03T01:59:00;101208.06;;;8.55;100.00
60465;BME280;46314;52.392;9.758;2023-02-03T02:01:28;101206.97;;;8.56;100.00
60465;BME280;46314;52.392;9.758;2023-02-03T02:03:58;101203.13;;;8.82;100.00
60465;BME280;46314;52.392;9.758;2023-02-03T02:06:26;101193.16;;;9.07;100.00
60465;BME280;46314;52.392;9.758;2023-02-03T02:08:53;101190.38;;;8.86;100.00
60465;BME280;46314;52.392;9.758;2023-02-03T02:11:21;101177.69;;;8.90;100.00
60465;BME280;46314;52.392;9.758;2023-02-03T02:13:50;101168.84;;;8.68;100.00
60465;BME280;46314;52.392;9.758;2023-02-03T02:16:24;101158.59;;;8.68;100.00
60465;BME280;46314;52.392;9.758;2023-02-03T02:19:08;101168.25;;;8.91;100.00
60465;BME280;46314;52.392;9.758;2023-02-03T02:21:54;101167.16;;;8.82;100.00
60465;BME280;46314;52.392;9.758;2023-02-03T02:28:07;101133.97;;;8.67;100.00
60465;BME280;46314;52.392;9.758;2023-02-03T02:30:42;101151.41;;;8.57;100.00
60465;BME280;46314;52.392;9.758;2023-02-03T02:33:18;101132.88;;;8.94;99.13
60465;BME280;46314;52.392;9.758;2023-02-03T02:35:56;101132.59;;;8.90;99.54
60465;BME280;46314;52.392;9.758;2023-02-03T02:38:32;101148.06;;;8.86;98.85
60465;BME280;46314;52.392;9.758;2023-02-03T02:41:05;101131.22;;;8.72;99.84
60465;BME280;46314;52.392;9.758;2023-02-03T02:43:39;101133.97;;;8.82;98.78
60465;BME280;46314;52.392;9.758;2023-02-03T02:46:09;101139.22;;;8.63;99.76
60465;BME280;46314;52.392;9.758;2023-02-03T02:48:40;101135.38;;;8.80;98.71
60465;BME280;46314;52.392;9.758;2023-02-03T02:51:10;101138.69;;;8.82;98.48
60465;BME280;46314;52.392;9.758;2023-02-03T02:53:41;101125.69;;;8.46;100.00
60465;BME280;46314;52.392;9.758;2023-02-03T02:56:10;101116.28;;;8.42;100.00
60465;BME280;46314;52.392;9.758;2023-02-03T02:58:43;101104.41;;;8.73;99.14
60465;BME280;46314;52.392;9.758;2023-02-03T03:01:12;101102.44;;;8.83;98.44
60465;BME280;46314;52.392;9.758;2023-02-03T03:03:39;101109.09;;;8.72;99.85
60465;BME280;46314;52.392;9.758;2023-02-03T03:06:08;101113.25;;;8.85;98.49
60465;BME280;46314;52.392;9.758;2023-02-03T03:08:39;101120.44;;;8.45;100.00
60465;BME280;46314;52.392;9.758;2023-02-03T03:11:07;101115.19;;;8.64;99.71
60465;BME280;46314;52.392;9.758;2023-02-03T03:13:36;101113.50;;;8.88;98.17
60465;BME280;46314;52.392;9.758;2023-02-03T03:16:05;101121.22;;;8.86;98.17
60465;BME280;46314;52.392;9.758;2023-02-03T03:18:35;101133.69;;;8.94;97.65
60465;BME280;46314;52.392;9.758;2023-02-03T03:21:05;101126.53;;;8.52;99.07
60465;BME280;46314;52.392;9.758;2023-02-03T03:23:36;101136.47;;;8.84;98.26
60465;BME280;46314;52.392;9.758;2023-02-03T03:26:07;101117.09;;;8.84;98.01
60465;BME280;46314;52.392;9.758;2023-02-03T03:28:41;101112.66;;;8.88;98.00
60465;BME280;46314;52.392;9.758;2023-02-03T03:31:10;101114.34;;;8.79;97.68
60465;BME280;46314;52.392;9.758;2023-02-03T03:33:37;101101.84;;;9.02;97.37
60465;BME280;46314;52.392;9.758;2023-02-03T03:36:12;101089.72;;;8.62;98.64
60465;BME280;46314;52.392;9.758;2023-02-03T03:38:43;101097.72;;;8.94;98.08
60465;BME280;46314;52.392;9.758;2023-02-03T03:41:14;101086.94;;;8.93;96.93
60465;BME280;46314;52.392;9.758;2023-02-03T03:43:44;101098.00;;;8.87;97.27
60465;BME280;46314;52.392;9.758;2023-02-03T03:46:15;101086.97;;;8.67;97.13
60465;BME280;46314;52.392;9.758;2023-02-03T03:48:49;101087.53;;;8.64;97.96
60465;BME280;46314;52.392;9.758;2023-02-03T03:51:21;101072.06;;;8.47;98.83
60465;BME280;46314;52.392;9.758;2023-02-03T03:53:49;101075.63;;;8.58;99.12
60465;BME280;46314;52.392;9.758;2023-02-03T03:56:19;101080.59;;;8.77;98.15
60465;BME280;46314;52.392;9.758;2023-02-03T03:58:48;101068.38;;;9.03;95.93
60465;BME280;46314;52.392;9.758;2023-02-03T04:01:16;101066.78;;;8.77;97.26
60465;BME280;46314;52.392;9.758;2023-02-03T04:03:45;101063.66;;;8.99;95.14
60465;BME280;46314;52.392;9.758;2023-02-03T04:06:13;101078.94;;;8.70;96.88
60465;BME280;46314;52.392;9.758;2023-02-03T04:08:41;101062.34;;;8.70;96.55
60465;BME280;46314;52.392;9.758;2023-02-03T04:11:08;101064.56;;;8.68;97.05
60465;BME280;46314;52.392;9.758;2023-02-03T04:13:34;101046.00;;;8.79;95.72
60465;BME280;46314;52.392;9.758;2023-02-03T04:16:01;101054.63;;;8.57;96.93
60465;BME280;46314;52.392;9.758;2023-02-03T04:18:27;101058.75;;;8.70;95.93
60465;BME280;46314;52.392;9.758;2023-02-03T04:20:54;101060.44;;;8.61;98.06
60465;BME280;46314;52.392;9.758;2023-02-03T04:23:20;101049.63;;;8.80;96.16
60465;BME280;46314;52.392;9.758;2023-02-03T04:25:48;101060.69;;;8.90;95.44
60465;BME280;46314;52.392;9.758;2023-02-03T04:28:14;101056.25;;;8.89;95.46
60465;BME280;46314;52.392;9.758;2023-02-03T04:30:41;101061.41;;;9.11;94.20
60465;BME280;46314;52.392;9.758;2023-02-03T04:33:07;101063.75;;;8.78;95.06
60465;BME280;46314;52.392;9.758;2023-02-03T04:35:33;101054.56;;;8.88;94.94
60465;BME280;46314;52.392;9.758;2023-02-03T04:38:00;101047.69;;;8.80;95.96
60465;BME280;46314;52.392;9.758;2023-02-03T04:40:26;101059.00;;;8.84;95.72
60465;BME280;46314;52.392;9.758;2023-02-03T04:42:54;101057.94;;;8.75;95.25
60465;BME280;46314;52.392;9.758;2023-02-03T04:45:21;101048.47;;;8.91;95.12
60465;BME280;46314;52.392;9.758;2023-02-03T04:47:50;101056.81;;;8.70;96.94
60465;BME280;46314;52.392;9.758;2023-02-03T04:50:19;101053.78;;;8.67;96.88
60465;BME280;46314;52.392;9.758;2023-02-03T04:52:46;101046.00;;;8.79;95.13
60465;BME280;46314;52.392;9.758;2023-02-03T04:55:12;101037.72;;;8.79;95.27
60465;BME280;46314;52.392;9.758;2023-02-03T04:57:39;101041.06;;;8.81;95.39
60465;BME280;46314;52.392;9.758;2023-02-03T05:00:08;101036.34;;;8.77;95.54
60465;BME280;46314;52.392;9.758;2023-02-03T05:02:35;101040.53;;;8.69;95.83
60465;BME280;46314;52.392;9.758;2023-02-03T05:05:01;101033.84;;;8.80;94.75
60465;BME280;46314;52.392;9.758;2023-02-03T05:07:28;101031.38;;;8.63;95.38
60465;BME280;46314;52.392;9.758;2023-02-03T05:09:54;101015.59;;;8.79;94.65
60465;BME280;46314;52.392;9.758;2023-02-03T05:12:21;101009.53;;;8.67;95.28
60465;BME280;46314;52.392;9.758;2023-02-03T05:14:47;101020.59;;;8.72;95.34
60465;BME280;46314;52.392;9.758;2023-02-03T05:17:15;101007.38;;;8.59;96.14
60465;BME280;46314;52.392;9.758;2023-02-03T05:19:41;101003.44;;;8.70;95.13
60465;BME280;46314;52.392;9.758;2023-02-03T05:22:08;100999.06;;;8.69;94.98
60465;BME280;46314;52.392;9.758;2023-02-03T05:24:34;100999.31;;;8.78;94.74
60465;BME280;46314;52.392;9.758;2023-02-03T05:27:00;100986.28;;;8.83;94.46
60465;BME280;46314;52.392;9.758;2023-02-03T05:29:27;100995.97;;;8.76;94.88
60465;BME280;46314;52.392;9.758;2023-02-03T05:31:53;100980.13;;;8.97;94.01
60465;BME280;46314;52.392;9.758;2023-02-03T05:34:21;100987.38;;;8.82;94.59
60465;BME280;46314;52.392;9.758;2023-02-03T05:36:47;100984.88;;;8.81;95.17
60465;BME280;46314;52.392;9.758;2023-02-03T05:39:14;100981.81;;;8.93;94.60
60465;BME280;46314;52.392;9.758;2023-02-03T05:41:40;100976.31;;;8.82;94.88
60465;BME280;46314;52.392;9.758;2023-02-03T05:44:07;100982.63;;;8.93;94.78
60465;BME280;46314;52.392;9.758;2023-02-03T05:46:33;100973.00;;;8.80;95.39
60465;BME280;46314;52.392;9.758;2023-02-03T05:49:00;100984.09;;;8.65;96.18
60465;BME280;46314;52.392;9.758;2023-02-03T05:51:27;100984.34;;;8.74;96.07
60465;BME280;46314;52.392;9.758;2023-02-03T05:53:54;101004.59;;;8.69;96.07
60465;BME280;46314;52.392;9.758;2023-02-03T05:56:20;100986.59;;;8.66;96.60
60465;BME280;46314;52.392;9.758;2023-02-03T05:58:47;100976.13;;;8.38;98.81
60465;BME280;46314;52.392;9.758;2023-02-03T06:01:13;100978.59;;;8.49;99.37
60465;BME280;46314;52.392;9.758;2023-02-03T06:03:40;100970.81;;;8.72;97.55
60465;BME280;46314;52.392;9.758;2023-02-03T06:06:09;100978.81;;;8.79;98.04
60465;BME280;46314;52.392;9.758;2023-02-03T06:08:37;100988.28;;;8.62;98.37
60465;BME280;46314;52.392;9.758;2023-02-03T06:11:03;100991.03;;;8.73;98.00
60465;BME280;46314;52.392;9.758;2023-02-03T06:13:30;100985.53;;;8.57;98.62
60465;BME280;46314;52.392;9.758;2023-02-03T06:15:56;100993.78;;;8.78;97.76
60465;BME280;46314;52.392;9.758;2023-02-03T06:18:23;100994.00;;;8.86;97.73
60465;BME280;46314;52.392;9.758;2023-02-03T06:20:50;100991.81;;;8.78;97.69
60465;BME280;46314;52.392;9.758;2023-02-03T06:23:17;100990.78;;;8.48;99.69
60465;BME280;46314;52.392;9.758;2023-02-03T06:25:46;100996.56;;;8.21;100.00
60465;BME280;46314;52.392;9.758;2023-02-03T06:28:13;100992.97;;;8.41;100.00
60465;BME280;46314;52.392;9.758;2023-02-03T06:30:40;100987.72;;;8.40;100.00
60465;BME280;46314;52.392;9.758;2023-02-03T06:33:06;100983.03;;;8.40;100.00
60465;BME280;46314;52.392;9.758;2023-02-03T06:35:33;100988.31;;;8.11;100.00
60465;BME280;46314;52.392;9.758;2023-02-03T06:38:00;101001.84;;;8.18;100.00
60465;BME280;46314;52.392;9.758;2023-02-03T06:40:26;100987.47;;;8.21;100.00
60465;BME280;46314;52.392;9.758;2023-02-03T06:42:55;100991.34;;;8.50;100.00
60465;BME280;46314;52.392;9.758;2023-02-03T06:45:21;100978.31;;;8.56;100.00
60465;BME280;46314;52.392;9.758;2023-02-03T06:47:48;100987.47;;;8.46;100.00
60465;BME280;46314;52.392;9.758;2023-02-03T06:50:14;100984.97;;;8.40;100.00
60465;BME280;46314;52.392;9.758;2023-02-03T06:52:41;100980.81;;;8.63;100.00
60465;BME280;46314;52.392;9.758;2023-02-03T06:55:08;100971.97;;;8.30;100.00
60465;BME280;46314;52.392;9.758;2023-02-03T06:57:35;100969.22;;;8.25;100.00
60465;BME280;46314;52.392;9.758;2023-02-03T07:00:03;100962.31;;;8.48;100.00
60465;BME280;46314;52.392;9.758;2023-02-03T07:02:30;100962.34;;;8.43;100.00
60465;BME280;46314;52.392;9.758;2023-02-03T07:04:56;100952.38;;;8.21;100.00
60465;BME280;46314;52.392;9.758;2023-02-03T07:07:23;100953.22;;;7.86;100.00
60465;BME280;46314;52.392;9.758;2023-02-03T07:09:49;100952.38;;;8.16;100.00
60465;BME280;46314;52.392;9.758;2023-02-03T07:12:16;100952.34;;;8.31;100.00
60465;BME280;46314;52.392;9.758;2023-02-03T07:14:42;100962.59;;;8.31;100.00
60465;BME280;46314;52.392;9.758;2023-02-03T07:17:10;100959.28;;;8.13;100.00
60465;BME280;46314;52.392;9.758;2023-02-03T07:19:36;100955.97;;;8.32;100.00
60465;BME280;46314;52.392;9.758;2023-02-03T07:22:03;100948.78;;;8.05;100.00
60465;BME280;46314;52.392;9.758;2023-02-03T07:24:29;100957.88;;;8.31;100.00
60465;BME280;46314;52.392;9.758;2023-02-03T07:26:55;100955.13;;;8.16;100.00
60465;BME280;46314;52.392;9.758;2023-02-03T07:29:22;100941.88;;;8.23;100.00
60465;BME280;46314;52.392;9.758;2023-02-03T07:31:48;100946.00;;;8.26;100.00
60465;BME280;46314;52.392;9.758;2023-02-03T07:34:16;100940.47;;;8.36;100.00
60465;BME280;46314;52.392;9.758;2023-02-03T07:36:43;100932.19;;;8.36;100.00
60465;BME280;46314;52.392;9.758;2023-02-03T07:39:09;100944.31;;;8.40;100.00
60465;BME280;46314;52.392;9.758;2023-02-03T07:41:35;100930.00;;;8.23;100.00
60465;BME280;46314;52.392;9.758;2023-02-03T07:44:02;100913.94;;;8.25;100.00
60465;BME280;46314;52.392;9.758;2023-02-03T07:46:29;100921.13;;;8.41;100.00
60465;BME280;46314;52.392;9.758;2023-02-03T07:48:55;100928.28;;;8.52;100.00
60465;BME280;46314;52.392;9.758;2023-02-03T07:51:23;100923.63;;;8.22;100.00
60465;BME280;46314;52.392;9.758;2023-02-03T07:53:49;100937.19;;;8.24;100.00
60465;BME280;46314;52.392;9.758;2023-02-03T07:56:16;100934.13;;;8.36;100.00
60465;BME280;46314;52.392;9.758;2023-02-03T07:58:42;100925.06;;;8.09;100.00
60465;BME280;46314;52.392;9.758;2023-02-03T08:01:10;100925.03;;;8.14;100.00
60465;BME280;46314;52.392;9.758;2023-02-03T08:03:37;100919.25;;;8.11;100.00
60465;BME280;46314;52.392;9.758;2023-02-03T08:06:04;100917.28;;;8.22;100.00
60465;BME280;46314;52.392;9.758;2023-02-03T08:08:32;100915.34;;;8.32;100.00
60465;BME280;46314;52.392;9.758;2023-02-03T08:10:58;100927.22;;;8.43;100.00
60465;BME280;46314;52.392;9.758;2023-02-03T08:13:25;100922.22;;;8.35;100.00
60465;BME280;46314;52.392;9.758;2023-02-03T08:15:51;100928.34;;;8.32;100.00
60465;BME280;46314;52.392;9.758;2023-02-03T08:18:18;100925.59;;;8.27;100.00
60465;BME280;46314;52.392;9.758;2023-02-03T08:20:45;100931.66;;;8.44;100.00
60465;BME280;46314;52.392;9.758;2023-02-03T08:23:12;100914.50;;;8.42;100.00
60465;BME280;46314;52.392;9.758;2023-02-03T08:25:40;100903.69;;;8.51;100.00
60465;BME280;46314;52.392;9.758;2023-02-03T08:28:07;100907.81;;;8.64;100.00
60465;BME280;46314;52.392;9.758;2023-02-03T08:30:34;100908.63;;;8.64;100.00
60465;BME280;46314;52.392;9.758;2023-02-03T08:33:01;100925.75;;;8.71;100.00
60465;BME280;46314;52.392;9.758;2023-02-03T08:35:27;100918.34;;;8.57;100.00
60465;BME280;46314;52.392;9.758;2023-02-03T08:37:53;100924.97;;;8.61;100.00
60465;BME280;46314;52.392;9.758;2023-02-03T08:40:20;100929.28;;;8.87;100.00
60465;BME280;46314;52.392;9.758;2023-02-03T08:42:48;100930.31;;;9.02;100.00
60465;BME280;46314;52.392;9.758;2023-02-03T08:45:14;100922.66;;;8.88;100.00
60465;BME280;46314;52.392;9.758;2023-02-03T08:47:41;100927.34;;;8.83;100.00
60465;BME280;46314;52.392;9.758;2023-02-03T08:50:08;100909.38;;;8.85;100.00
60465;BME280;46314;52.392;9.758;2023-02-03T08:52:35;100915.19;;;8.79;100.00
60465;BME280;46314;52.392;9.758;2023-02-03T08:55:02;100921.56;;;8.79;100.00
60465;BME280;46314;52.392;9.758;2023-02-03T08:57:31;100928.78;;;8.75;100.00
60465;BME280;46314;52.392;9.758;2023-02-03T08:59:59;100913.56;;;8.78;100.00
60465;BME280;46314;52.392;9.758;2023-02-03T09:02:25;100933.47;;;8.75;100.00
60465;BME280;46314;52.392;9.758;2023-02-03T09:04:52;100922.69;;;8.73;100.00
60465;BME280;46314;52.392;9.758;2023-02-03T09:07:18;100926.56;;;8.72;100.00
60465;BME280;46314;52.392;9.758;2023-02-03T09:09:45;100922.38;;;8.85;100.00
60465;BME280;46314;52.392;9.758;2023-02-03T09:12:11;100921.91;;;8.67;100.00
60465;BME280;46314;52.392;9.758;2023-02-03T09:14:38;100931.47;;;8.90;100.00
60465;BME280;46314;52.392;9.758;2023-02-03T09:17:06;100928.94;;;8.99;100.00
60465;BME280;46314;52.392;9.758;2023-02-03T09:19:32;100943.09;;;8.87;100.00
60465;BME280;46314;52.392;9.758;2023-02-03T09:22:05;100935.31;;;9.00;100.00
60465;BME280;46314;52.392;9.758;2023-02-03T09:24:31;100935.78;;;9.12;100.00
60465;BME280;46314;52.392;9.758;2023-02-03T09:26:58;100931.72;;;8.99;100.00
60465;BME280;46314;52.392;9.758;2023-02-03T09:29:24;100935.22;;;9.15;100.00
60465;BME280;46314;52.392;9.758;2023-02-03T09:31:51;100922.94;;;9.32;100.00
60465;BME280;46314;52.392;9.758;2023-02-03T09:34:19;100915.28;;;9.18;100.00
60465;BME280;46314;52.392;9.758;2023-02-03T09:36:46;100908.56;;;9.29;100.00
60465;BME280;46314;52.392;9.758;2023-02-03T09:39:12;100919.16;;;9.17;100.00
60465;BME280;46314;52.392;9.758;2023-02-03T09:41:49;100910.44;;;8.89;100.00
60465;BME280;46314;52.392;9.758;2023-02-03T09:44:19;100917.25;;;9.07;100.00
60465;BME280;46314;52.392;9.758;2023-02-03T09:46:50;100914.00;;;8.95;100.00
60465;BME280;46314;52.392;9.758;2023-02-03T09:49:24;100915.38;;;9.03;100.00
60465;BME280;46314;52.392;9.758;2023-02-03T09:51:55;100924.13;;;9.20;100.00
60465;BME280;46314;52.392;9.758;2023-02-03T09:54:27;100927.50;;;9.12;100.00
60465;BME280;46314;52.392;9.758;2023-02-03T09:57:03;100943.03;;;9.03;100.00
60465;BME280;46314;52.392;9.758;2023-02-03T09:59:32;100934.97;;;9.12;100.00
60465;BME280;46314;52.392;9.758;2023-02-03T10:02:12;100926.72;;;9.01;100.00
60465;BME280;46314;52.392;9.758;2023-02-03T10:04:51;100911.47;;;9.04;100.00
60465;BME280;46314;52.392;9.758;2023-02-03T10:07:29;100920.91;;;9.03;100.00
60465;BME280;46314;52.392;9.758;2023-02-03T10:10:06;100912.19;;;9.25;100.00
60465;BME280;46314;52.392;9.758;2023-02-03T10:12:51;100921.47;;;9.00;100.00
60465;BME280;46314;52.392;9.758;2023-02-03T10:15:39;100929.16;;;9.13;100.00
60465;BME280;46314;52.392;9.758;2023-02-03T10:18:12;100917.56;;;9.06;100.00
60465;BME280;46314;52.392;9.758;2023-02-03T10:20:43;100939.09;;;9.14;100.00
60465;BME280;46314;52.392;9.758;2023-02-03T10:23:15;100927.50;;;9.12;100.00
60465;BME280;46314;52.392;9.758;2023-02-03T10:25:44;100944.88;;;9.18;100.00
60465;BME280;46314;52.392;9.758;2023-02-03T10:28:16;100940.19;;;9.23;100.00
60465;BME280;46314;52.392;9.758;2023-02-03T10:30:47;100954.69;;;8.95;100.00
60465;BME280;46314;52.392;9.758;2023-02-03T10:33:17;100945.81;;;9.03;100.00
60465;BME280;46314;52.392;9.758;2023-02-03T10:35:49;100983.56;;;8.63;100.00
60465;BME280;46314;52.392;9.758;2023-02-03T10:38:23;100960.16;;;9.10;100.00
60465;BME280;46314;52.392;9.758;2023-02-03T10:40:54;100967.00;;;9.23;100.00
60465;BME280;46314;52.392;9.758;2023-02-03T10:43:21;100968.50;;;9.00;100.00
60465;BME280;46314;52.392;9.758;2023-02-03T10:45:47;100982.91;;;8.91;100.00
60465;BME280;46314;52.392;9.758;2023-02-03T10:48:14;100976.25;;;8.98;100.00
60465;BME280;46314;52.392;9.758;2023-02-03T10:50:48;100963.03;;;8.84;100.00
60465;BME280;46314;52.392;9.758;2023-02-03T10:53:21;100984.34;;;9.44;100.00
60465;BME280;46314;52.392;9.758;2023-02-03T10:55:49;100989.88;;;9.44;100.00
60465;BME280;46314;52.392;9.758;2023-02-03T10:58:25;100995.38;;;9.49;100.00
60465;BME280;46314;52.392;9.758;2023-02-03T11:00:54;100990.84;;;9.63;100.00
60465;BME280;46314;52.392;9.758;2023-02-03T11:03:24;100989.19;;;9.68;99.77
60465;BME280;46314;52.392;9.758;2023-02-03T11:06:08;100995.41;;;9.44;100.00
60465;BME280;46314;52.392;9.758;2023-02-03T11:08:36;101000.84;;;9.59;100.00
60465;BME280;46314;52.392;9.758;2023-02-03T11:11:05;100998.63;;;9.61;100.00
60465;BME280;46314;52.392;9.758;2023-02-03T11:13:32;101008.84;;;9.66;99.71
60465;BME280;46314;52.392;9.758;2023-02-03T11:16:00;101011.69;;;9.95;99.14
60465;BME280;46314;52.392;9.758;2023-02-03T11:18:35;101005.53;;;10.03;97.93
60465;BME280;46314;52.392;9.758;2023-02-03T11:21:08;101017.31;;;9.85;97.95
60465;BME280;46314;52.392;9.758;2023-02-03T11:23:36;101020.66;;;9.82;98.18
60465;BME280;46314;52.392;9.758;2023-02-03T11:26:11;101016.47;;;9.84;97.64
60465;BME280;46314;52.392;9.758;2023-02-03T11:28:41;101025.53;;;9.95;97.76
60465;BME280;46314;52.392;9.758;2023-02-03T11:31:16;101021.25;;;10.13;96.28
60465;BME280;46314;52.392;9.758;2023-02-03T11:33:46;101029.47;;;9.89;98.16
60465;BME280;46314;52.392;9.758;2023-02-03T11:36:16;101021.66;;;9.96;96.98
60465;BME280;46314;52.392;9.758;2023-02-03T11:38:42;101028.75;;;9.73;97.63
60465;BME280;46314;52.392;9.758;2023-02-03T11:41:15;101020.00;;;9.51;98.88
60465;BME280;46314;52.392;9.758;2023-02-03T11:43:42;101022.00;;;9.84;96.36
60465;BME280;46314;52.392;9.758;2023-02-03T11:46:08;101026.00;;;10.08;94.86
60465;BME280;46314;52.392;9.758;2023-02-03T11:48:36;101025.66;;;9.80;96.84
60465;BME280;46314;52.392;9.758;2023-02-03T11:51:11;101030.94;;;10.16;94.16
60465;BME280;46314;52.392;9.758;2023-02-03T11:54:00;101028.41;;;9.85;94.54
60465;BME280;46314;52.392;9.758;2023-02-03T11:56:40;101031.78;;;9.77;94.55
60465;BME280;46314;52.392;9.758;2023-02-03T11:59:25;101033.66;;;9.81;93.90
60465;BME280;46314;52.392;9.758;2023-02-03T12:02:07;101041.97;;;9.81;91.82
60465;BME280;46314;52.392;9.758;2023-02-03T12:05:05;101041.03;;;10.01;91.13
60465;BME280;46314;52.392;9.758;2023-02-03T12:07:47;101037.09;;;9.68;91.80
60465;BME280;46314;52.392;9.758;2023-02-03T12:10:29;101040.38;;;9.75;91.58
60465;BME280;46314;52.392;9.758;2023-02-03T12:13:04;101037.22;;;9.92;90.46
60465;BME280;46314;52.392;9.758;2023-02-03T12:15:46;101040.06;;;9.82;88.01
60465;BME280;46314;52.392;9.758;2023-02-03T12:18:32;101046.88;;;9.95;87.87
60465;BME280;46314;52.392;9.758;2023-02-03T12:21:09;101045.88;;;9.80;87.83
60465;BME280;46314;52.392;9.758;2023-02-03T12:23:45;101057.31;;;9.63;86.38
60465;BME280;46314;52.392;9.758;2023-02-03T12:26:19;101053.66;;;9.78;87.54
60465;BME280;46314;52.392;9.758;2023-02-03T12:28:49;101075.69;;;9.44;87.35
60465;BME280;46314;52.392;9.758;2023-02-03T12:31:24;101045.31;;;9.28;86.53
60465;BME280;46314;52.392;9.758;2023-02-03T12:33:57;101064.78;;;9.68;82.73
60465;BME280;46314;52.392;9.758;2023-02-03T12:36:29;101049.81;;;9.69;81.25
60465;BME280;46314;52.392;9.758;2023-02-03T12:39:01;101058.69;;;9.71;81.99
60465;BME280;46314;52.392;9.758;2023-02-03T12:41:37;101063.13;;;9.67;79.67
60465;BME280;46314;52.392;9.758;2023-02-03T12:44:14;101077.66;;;9.93;78.36
60465;BME280;46314;52.392;9.758;2023-02-03T12:46:43;101077.91;;;9.97;79.11
60465;BME280;46314;52.392;9.758;2023-02-03T12:49:25;101071.19;;;10.08;76.33
60465;BME280;46314;52.392;9.758;2023-02-03T12:51:57;101093.09;;;10.10;73.88
60465;BME280;46314;52.392;9.758;2023-02-03T12:54:33;101088.03;;;9.72;74.20
60465;BME280;46314;52.392;9.758;2023-02-03T12:57:11;101086.44;;;10.05;72.72
60465;BME280;46314;52.392;9.758;2023-02-03T12:59:40;101081.63;;;9.82;73.37
60465;BME280;46314;52.392;9.758;2023-02-03T13:02:13;101071.75;;;9.60;72.79
60465;BME280;46314;52.392;9.758;2023-02-03T13:04:46;101077.53;;;10.14;70.71
60465;BME280;46314;52.392;9.758;2023-02-03T13:07:18;101076.31;;;9.85;71.76
60465;BME280;46314;52.392;9.758;2023-02-03T13:09:49;101083.50;;;9.86;72.58